Main page
METAR-TAF:

METAR-TAF

Airports :

West Memphis Municipal Airport

West Memphis, Arkansas, United States

latitude: 35-08N, longitude: 090-14W, elevation: 213 ft

Current weather observation

The report was made 57 minutes ago, at 10:53 UTC
Wind 6 mph from the South/Southeast
Temperature 43°F
Humidity 75%
Pressure 30.20 in. Hg
Visibility: 10 miles
Overcast at a height of 6500 ft

METAR: KAWM 231053Z AUTO 15005KT 10SM OVC065 06/02 A3020 RMK AO2 SLP228 T00610022

Time: 05:50 (11:50 UTC)


TAF: missing

Weather observations and forecasts of more than 4000 airports (METAR and TAF reports).

The available stations are represented by yellow and red dots on the map.

Hover mouse over dot to see the name of the station.

Then click to see weather observations and forecasts.

To change the map : click on the green buttons with a black cross to zoom in, on the green button with a dash to zoom out, or on the green arrows for adjacent maps.


METAR-TAF: